Terminal Aerodrome Forecast
Issued by NWS

Home | Current Version | Previous Version | Text Only | Print | Product List | Glossary On
Versions: 1 2 3 4 5 6 7 8 9 10 11 12 13 14
204
FTUS42 KMLB 230523
TAFISM
TAF
KISM 230523Z 2306/2406 08006KT P6SM SCT025 SCT035 BKN250
      TEMPO 2308/2312 BKN030
     FM231400 06008KT P6SM VCSH SCT030 SCT150 BKN250
     FM231800 07012G18KT P6SM VCTS SCT040CB BKN060 BKN250
     FM240000 05009KT P6SM VCSH SCT040 BKN090 BKN250=

USA.gov is the U.S. government's official web portal to all federal, state and local government web resources and services.